Time;durP1;ratioP1;P1;durP2;ratioP2;P2;SDS_P1;SDS_P2;PMS_P1;PMS_P2;Temp;Humidity;BMP_temperature;BMP_pressure;BME280_temperature;BME280_humidity;BME280_pressure;Samples;Min_cycle;Max_cycle;Signal;HPM_P1;HPM_P2
2021/03/16 03:46:16;;;;;;;7.55;5.45;;;5.30;99.90;;;;;;5582340;23;20059;-87
2021/03/16 03:48:45;;;;;;;5.30;4.80;;;5.30;99.90;;;;;;4997650;28;20078;-86
2021/03/16 03:51:11;;;;;;;6.65;5.13;;;5.30;99.90;;;;;;4988720;28;20051;-85
2021/03/16 03:53:39;;;;;;;6.95;5.07;;;5.40;99.90;;;;;;4997121;28;20062;-87
2021/03/16 03:56:07;;;;;;;6.18;4.72;;;5.40;99.90;;;;;;5005559;28;20219;-86
2021/03/16 03:58:36;;;;;;;6.20;5.60;;;5.30;99.90;;;;;;4992141;28;20498;-88
2021/03/16 04:01:02;;;;;;;7.30;5.57;;;5.30;99.90;;;;;;4988764;28;20027;-87
2021/03/16 04:03:28;;;;;;;6.95;4.97;;;;;;;;;;4988476;28;20035;-87
2021/03/16 04:05:54;;;;;;;4.97;4.45;;;5.30;99.90;;;;;;4986532;28;20043;-87
2021/03/16 04:08:21;;;;;;;5.13;4.63;;;5.20;99.90;;;;;;4988138;28;20407;-87
2021/03/16 04:10:46;;;;;;;5.78;5.28;;;5.30;99.90;;;;;;4991333;28;20039;-85
2021/03/16 04:13:12;;;;;;;5.10;4.30;;;5.30;99.90;;;;;;4985123;28;20053;-86
2021/03/16 04:15:39;;;;;;;7.40;4.50;;;;;;;;;;5005561;28;20126;-87
2021/03/16 04:18:05;;;;;;;6.60;4.82;;;;;;;;;;5009294;28;20073;-87
2021/03/16 04:20:31;;;;;;;5.32;4.82;;;;;;;;;;5000994;28;20054;-87
2021/03/16 04:22:57;;;;;;;8.10;5.30;;;;;;;;;;5000042;28;20494;-86
2021/03/16 04:25:23;;;;;;;6.25;4.60;;;5.20;99.90;;;;;;5004988;28;20036;-88
2021/03/16 04:27:48;;;;;;;5.30;4.25;;;5.20;99.90;;;;;;4997096;28;20396;-88
2021/03/16 04:30:15;;;;;;;4.90;4.40;;;5.20;99.90;;;;;;4995192;28;20384;-89
2021/03/16 04:32:40;;;;;;;6.18;4.55;;;5.20;99.90;;;;;;4996690;28;20081;-88
2021/03/16 04:35:07;;;;;;;5.55;4.70;;;5.20;99.90;;;;;;5005677;28;20050;-88
2021/03/16 04:37:32;;;;;;;5.70;4.43;;;5.20;99.90;;;;;;5012237;28;20035;-88
2021/03/16 04:39:58;;;;;;;8.07;5.15;;;5.20;99.90;;;;;;5011945;28;20441;-87
2021/03/16 04:42:24;;;;;;;4.38;4.00;;;5.20;99.90;;;;;;5011767;28;20622;-88
2021/03/16 04:44:50;;;;;;;4.88;4.07;;;;;;;;;;4991960;28;20054;-88
2021/03/16 04:47:15;;;;;;;6.25;4.85;;;5.20;99.90;;;;;;5011024;28;20055;-86
2021/03/16 04:49:41;;;;;;;6.50;4.72;;;;;;;;;;4992830;28;20099;-85
2021/03/16 04:52:07;;;;;;;5.43;4.88;;;5.20;99.90;;;;;;4991765;28;20053;-89
2021/03/16 04:54:33;;;;;;;5.65;4.35;;;5.20;99.90;;;;;;5007719;28;20050;-87
2021/03/16 04:56:59;;;;;;;5.90;4.70;;;;;;;;;;5003365;28;20094;-87
2021/03/16 04:59:25;;;;;;;5.00;4.47;;;5.00;99.90;;;;;;4990958;28;20051;-86
2021/03/16 05:01:51;;;;;;;6.72;4.88;;;5.00;99.90;;;;;;4966768;28;20499;-86
2021/03/16 05:04:16;;;;;;;5.72;5.05;;;4.90;99.90;;;;;;4981762;28;20052;-88
2021/03/16 05:06:42;;;;;;;5.05;4.30;;;;;;;;;;4991548;28;20095;-86
2021/03/16 05:09:08;;;;;;;6.43;5.25;;;4.60;99.90;;;;;;4993318;28;20028;-86
2021/03/16 05:11:35;;;;;;;5.68;4.65;;;4.60;99.90;;;;;;4995344;28;20035;-87
2021/03/16 05:14:01;;;;;;;6.13;5.53;;;4.70;99.90;;;;;;5004162;28;20063;-87
2021/03/16 05:16:27;;;;;;;7.13;5.32;;;4.70;99.90;;;;;;5008099;28;20054;-88
2021/03/16 05:18:52;;;;;;;5.88;5.38;;;4.70;99.90;;;;;;4999924;28;20061;-88
2021/03/16 05:21:18;;;;;;;7.72;6.00;;;4.50;99.90;;;;;;4993174;28;20039;-85
2021/03/16 05:23:44;;;;;;;6.60;5.18;;;4.40;99.90;;;;;;4993207;28;20054;-86
2021/03/16 05:26:09;;;;;;;9.30;5.28;;;4.40;99.90;;;;;;4993800;28;20042;-87
2021/03/16 05:28:35;;;;;;;6.07;5.35;;;;;;;;;;4994459;28;20054;-88
2021/03/16 05:31:01;;;;;;;5.70;5.10;;;;;;;;;;4994062;28;20039;-85
2021/03/16 05:33:27;;;;;;;7.32;5.38;;;;;;;;;;4993808;28;20050;-87
2021/03/16 05:35:53;;;;;;;6.60;5.82;;;;;;;;;;4993528;28;20050;-88
2021/03/16 05:38:19;;;;;;;8.55;4.97;;;;;;;;;;4990041;28;20035;-85
2021/03/16 05:40:46;;;;;;;5.97;4.60;;;4.30;99.90;;;;;;4993684;28;20039;-88
2021/03/16 05:43:12;;;;;;;6.18;4.53;;;4.30;99.90;;;;;;4990541;28;20409;-85
2021/03/16 05:45:38;;;;;;;5.30;4.88;;;4.40;99.90;;;;;;4990685;28;20142;-87
2021/03/16 05:48:09;;;;;;;8.00;5.35;;;4.30;99.90;;;;;;4995531;28;20057;-87
2021/03/16 05:50:43;;;;;;;6.10;4.80;;;4.40;99.90;;;;;;4990673;28;20049;-87
2021/03/16 05:53:09;;;;;;;7.15;4.70;;;4.40;99.90;;;;;;4993622;28;20071;-88
2021/03/16 05:55:35;;;;;;;6.35;4.60;;;4.40;99.90;;;;;;4991668;28;20055;-89
2021/03/16 05:58:01;;;;;;;6.65;4.57;;;4.50;99.90;;;;;;4993795;28;20035;-89
2021/03/16 06:00:27;;;;;;;5.07;4.47;;;;;;;;;;4993644;28;20753;-89
2021/03/16 06:02:53;;;;;;;6.93;4.28;;;4.50;99.90;;;;;;4991232;28;20039;-88
2021/03/16 06:05:19;;;;;;;6.35;4.32;;;;;;;;;;4991816;28;20078;-88
2021/03/16 06:07:52;;;;;;;7.22;4.60;;;4.50;99.90;;;;;;4994774;28;20135;-86
2021/03/16 06:10:22;;;;;;;5.82;4.90;;;4.50;99.90;;;;;;4975132;28;20062;-85
2021/03/16 06:12:48;;;;;;;9.43;5.00;;;4.60;99.90;;;;;;4991237;28;20144;-85
2021/03/16 06:15:19;;;;;;;6.32;4.72;;;4.50;99.90;;;;;;4989170;28;20055;-90
2021/03/16 06:17:51;;;;;;;7.82;5.95;;;4.60;99.90;;;;;;4992187;28;20102;-87
2021/03/16 06:20:28;;;;;;;7.20;5.55;;;4.70;99.90;;;;;;4994456;28;20047;-88
2021/03/16 06:23:12;;;;;;;4.70;4.30;;;4.70;99.90;;;;;;4972078;28;20139;-87
2021/03/16 06:25:37;;;;;;;5.15;4.47;;;4.80;99.90;;;;;;4982899;28;20043;-88
2021/03/16 06:28:05;;;;;;;6.93;5.32;;;4.80;99.90;;;;;;4990085;28;20055;-88
2021/03/16 06:30:32;;;;;;;7.68;4.55;;;4.80;99.90;;;;;;4990975;28;20132;-87
2021/03/16 06:32:58;;;;;;;5.00;4.50;;;;;;;;;;4991338;28;20047;-89
2021/03/16 06:35:25;;;;;;;6.50;5.20;;;4.50;99.90;;;;;;4990783;28;20054;-88
2021/03/16 06:38:10;;;;;;;4.68;4.10;;;4.90;99.90;;;;;;4972332;28;20504;-88
2021/03/16 06:40:35;;;;;;;7.60;4.20;;;4.90;99.90;;;;;;4995143;28;20183;-85
2021/03/16 06:43:03;;;;;;;5.50;3.90;;;4.90;99.90;;;;;;4989517;28;20092;-88
2021/03/16 06:45:30;;;;;;;7.90;4.53;;;4.80;99.90;;;;;;4984663;28;20044;-88
2021/03/16 06:47:56;;;;;;;6.68;3.88;;;;;;;;;;4968065;28;20046;-89
2021/03/16 06:50:29;;;;;;;3.85;3.55;;;4.90;99.90;;;;;;4985358;28;20047;-88
2021/03/16 06:52:57;;;;;;;7.03;4.03;;;;;;;;;;4988853;28;20411;-89
2021/03/16 06:55:23;;;;;;;6.20;4.07;;;5.00;99.90;;;;;;4988972;28;20047;-89
2021/03/16 06:57:49;;;;;;;5.38;3.50;;;5.00;99.90;;;;;;4972560;28;20874;-88
2021/03/16 07:00:15;;;;;;;4.70;4.03;;;5.10;99.90;;;;;;4990661;28;20132;-88
2021/03/16 07:02:41;;;;;;;5.63;4.30;;;;;;;;;;4991880;28;20039;-87
2021/03/16 07:05:08;;;;;;;5.18;3.90;;;5.40;99.90;;;;;;4994681;28;20208;-88
2021/03/16 07:07:33;;;;;;;9.45;4.22;;;5.30;99.90;;;;;;4989908;28;20070;-89
2021/03/16 07:10:06;;;;;;;4.18;3.78;;;5.40;99.90;;;;;;4990676;28;20125;-88
2021/03/16 07:12:34;;;;;;;5.72;3.83;;;5.50;99.90;;;;;;4991170;28;20620;-87
2021/03/16 07:15:01;;;;;;;4.75;3.95;;;5.60;99.90;;;;;;4994584;28;20035;-87
2021/03/16 07:17:28;;;;;;;5.03;4.22;;;5.60;99.90;;;;;;4991150;28;20123;-88
2021/03/16 07:20:14;;;;;;;7.43;5.68;;;5.70;99.90;;;;;;4982227;28;20053;-86
2021/03/16 07:22:50;;;;;;;5.43;3.90;;;5.70;99.90;;;;;;5003776;28;20054;-84
2021/03/16 07:25:16;;;;;;;7.18;3.80;;;5.70;99.90;;;;;;4988532;28;20562;-87
2021/03/16 07:27:43;;;;;;;3.50;3.20;;;5.60;99.90;;;;;;4974656;28;20031;-88
2021/03/16 07:30:09;;;;;;;4.78;3.55;;;5.70;99.90;;;;;;4992740;28;20046;-87
2021/03/16 07:32:35;;;;;;;5.40;3.45;;;5.80;99.90;;;;;;4989444;28;20050;-88
2021/03/16 07:35:02;;;;;;;3.53;3.22;;;;;;;;;;4989211;28;20087;-89
2021/03/16 07:37:29;;;;;;;5.03;3.58;;;5.80;99.60;;;;;;4992108;28;20039;-87
2021/03/16 07:39:59;;;;;;;5.80;3.53;;;5.90;99.40;;;;;;4972315;28;20099;-88
2021/03/16 07:42:26;;;;;;;4.25;3.03;;;;;;;;;;4986022;28;20043;-88
2021/03/16 07:44:52;;;;;;;4.60;3.28;;;;;;;;;;4991175;28;20039;-85
2021/03/16 07:47:18;;;;;;;6.43;3.53;;;;;;;;;;4990549;28;20066;-89
2021/03/16 07:49:44;;;;;;;5.90;3.70;;;;;;;;;;4973715;28;20052;-88
2021/03/16 07:52:19;;;;;;;5.05;3.92;;;5.70;97.80;;;;;;4987693;28;20047;-89
2021/03/16 07:54:48;;;;;;;5.25;4.72;;;5.60;98.60;;;;;;4954001;28;20032;-89
2021/03/16 07:57:26;;;;;;;5.53;4.43;;;5.50;98.70;;;;;;4984395;28;20100;-90
2021/03/16 08:00:04;;;;;;;3.35;3.15;;;5.50;98.60;;;;;;4990516;28;20040;-88
2021/03/16 08:02:32;;;;;;;4.95;3.53;;;5.60;98.80;;;;;;4990747;28;20099;-88
2021/03/16 08:04:58;;;;;;;3.88;3.50;;;;;;;;;;4990712;28;20115;-89
2021/03/16 08:07:27;;;;;;;6.05;4.22;;;5.80;98.60;;;;;;4991330;28;20044;-87
2021/03/16 08:09:57;;;;;;;4.00;3.65;;;5.90;99.20;;;;;;4993330;28;20047;-87
2021/03/16 08:12:27;;;;;;;6.20;3.80;;;6.00;98.60;;;;;;4990993;28;20095;-88
2021/03/16 08:14:54;;;;;;;5.03;3.92;;;6.10;98.70;;;;;;4990160;28;20045;-88
2021/03/16 08:17:31;;;;;;;4.53;4.07;;;6.00;98.70;;;;;;4988705;28;20486;-88
2021/03/16 08:19:57;;;;;;;4.10;3.70;;;6.10;98.30;;;;;;4997453;28;20042;-88
2021/03/16 08:22:25;;;;;;;5.65;4.30;;;6.00;98.40;;;;;;4995685;28;20044;-88
2021/03/16 08:24:58;;;;;;;6.93;3.95;;;6.00;98.60;;;;;;4973726;28;20134;-88
2021/03/16 08:27:27;;;;;;;4.13;3.55;;;5.90;96.90;;;;;;4995209;28;20491;-87
2021/03/16 08:29:53;;;;;;;4.70;2.90;;;5.90;97.10;;;;;;4992734;28;20039;-88
2021/03/16 08:32:20;;;;;;;3.83;3.28;;;6.00;97.90;;;;;;4995649;28;20893;-87
2021/03/16 08:34:47;;;;;;;17.83;3.97;;;6.10;96.90;;;;;;5006207;28;20107;-87
2021/03/16 08:37:33;;;;;;;5.32;3.72;;;6.10;97.10;;;;;;4980616;28;20043;-89
2021/03/16 08:40:00;;;;;;;4.30;3.75;;;6.00;97.30;;;;;;4992669;28;20063;-89
2021/03/16 08:42:28;;;;;;;3.70;3.40;;;6.10;97.60;;;;;;4995624;28;20043;-86
2021/03/16 08:44:55;;;;;;;4.22;3.80;;;6.00;97.30;;;;;;4995352;28;20046;-88
2021/03/16 08:47:26;;;;;;;5.90;3.42;;;5.90;97.00;;;;;;4999887;28;20056;-87
2021/03/16 08:49:54;;;;;;;4.40;3.45;;;5.90;97.30;;;;;;4982275;28;20198;-87
2021/03/16 08:52:20;;;;;;;2.80;2.60;;;;;;;;;;4995449;28;20558;-89
2021/03/16 08:54:46;;;;;;;3.55;3.10;;;6.00;97.30;;;;;;4996055;28;20042;-86
2021/03/16 08:57:19;;;;;;;5.65;3.03;;;5.90;97.10;;;;;;4977266;28;20042;-86
2021/03/16 08:59:48;;;;;;;3.85;3.28;;;5.90;97.20;;;;;;4993373;28;20054;-87
2021/03/16 09:02:19;;;;;;;5.32;3.00;;;6.00;98.00;;;;;;4994511;28;20590;-89
2021/03/16 09:04:45;;;;;;;3.45;3.13;;;;;;;;;;4977263;28;20050;-88
2021/03/16 09:07:18;;;;;;;3.97;3.25;;;6.40;96.60;;;;;;4999628;28;20176;-88
2021/03/16 09:09:44;;;;;;;5.20;2.90;;;6.50;96.00;;;;;;4994151;28;20043;-87
2021/03/16 09:12:12;;;;;;;4.80;3.13;;;6.70;95.60;;;;;;4996702;28;20056;-89
2021/03/16 09:14:39;;;;;;;4.57;3.00;;;6.80;95.80;;;;;;4977384;28;20035;-87
2021/03/16 09:17:05;;;;;;;3.85;3.35;;;6.80;94.40;;;;;;4994562;28;20077;-89
2021/03/16 09:19:32;;;;;;;3.65;3.35;;;;;;;;;;4993901;28;20039;-87
2021/03/16 09:22:01;;;;;;;6.50;3.72;;;6.90;93.40;;;;;;4994784;28;20506;-88
2021/03/16 09:24:28;;;;;;;5.00;3.10;;;6.80;93.80;;;;;;4975259;28;20039;-87
2021/03/16 09:26:59;;;;;;;4.90;4.13;;;6.70;94.50;;;;;;4992546;28;20046;-87
2021/03/16 09:29:31;;;;;;;4.60;3.75;;;6.80;93.70;;;;;;4975149;28;20051;-89
2021/03/16 09:32:00;;;;;;;7.65;3.65;;;6.80;93.10;;;;;;4992609;28;20066;-88
2021/03/16 09:34:26;;;;;;;4.93;3.30;;;6.90;93.60;;;;;;4992134;28;20045;-86
2021/03/16 09:37:00;;;;;;;5.07;3.25;;;6.90;93.00;;;;;;4991843;28;20050;-88
2021/03/16 09:39:26;;;;;;;5.53;3.67;;;6.70;92.20;;;;;;4991457;28;20039;-88
2021/03/16 09:42:04;;;;;;;4.45;4.00;;;6.60;92.50;;;;;;4990836;28;20082;-88
2021/03/16 09:44:42;;;;;;;8.90;3.80;;;6.70;92.90;;;;;;4990522;28;20043;-88
2021/03/16 09:47:08;;;;;;;4.60;3.15;;;6.80;92.50;;;;;;4972328;28;20047;-87
2021/03/16 09:49:39;;;;;;;4.13;3.50;;;6.90;92.10;;;;;;4999987;28;20049;-86
2021/03/16 09:52:10;;;;;;;3.25;2.95;;;6.90;92.20;;;;;;4990660;28;20114;-88
2021/03/16 09:54:44;;;;;;;4.60;3.97;;;7.00;92.00;;;;;;4986272;28;20082;-87
2021/03/16 09:57:15;;;;;;;5.47;4.50;;;7.10;92.40;;;;;;4966440;28;20106;-88
2021/03/16 09:59:44;;;;;;;4.25;3.47;;;7.10;91.00;;;;;;4991397;28;20126;-85
2021/03/16 10:02:13;;;;;;;4.75;3.97;;;7.00;92.10;;;;;;4991348;28;20098;-87
2021/03/16 10:04:50;;;;;;;4.15;3.47;;;7.10;92.30;;;;;;4976672;28;20043;-87
2021/03/16 10:07:31;;;;;;;9.07;3.63;;;7.20;91.80;;;;;;4991547;28;20505;-89
2021/03/16 10:10:14;;;;;;;5.47;4.07;;;7.20;91.70;;;;;;4980173;28;20562;-88
2021/03/16 10:12:52;;;;;;;4.32;3.53;;;7.30;92.10;;;;;;4987847;28;20098;-87
2021/03/16 10:15:30;;;;;;;7.03;3.58;;;7.20;91.50;;;;;;4990389;28;20035;-87
2021/03/16 10:18:01;;;;;;;6.80;4.57;;;7.20;91.90;;;;;;4990957;28;20055;-87
2021/03/16 10:20:35;;;;;;;5.78;4.38;;;7.20;91.90;;;;;;4987498;28;20054;-88
2021/03/16 10:23:06;;;;;;;8.02;4.63;;;7.50;92.10;;;;;;4991096;28;20522;-85
2021/03/16 10:25:34;;;;;;;6.22;3.65;;;7.60;91.80;;;;;;4978896;28;20050;-86
2021/03/16 10:28:03;;;;;;;4.55;3.95;;;7.70;91.90;;;;;;4980079;28;20083;-87
2021/03/16 10:30:30;;;;;;;7.57;3.47;;;8.00;92.40;;;;;;4989027;28;20130;-87
2021/03/16 10:32:56;;;;;;;4.30;3.03;;;8.10;91.30;;;;;;5002719;28;20053;-88
2021/03/16 10:35:21;;;;;;;4.55;3.15;;;8.00;91.30;;;;;;4973453;28;20047;-88
2021/03/16 10:37:47;;;;;;;5.40;3.95;;;8.20;91.90;;;;;;4991361;28;20043;-87
2021/03/16 10:40:13;;;;;;;8.07;3.63;;;8.30;91.90;;;;;;4990648;28;20054;-87
2021/03/16 10:42:39;;;;;;;6.78;4.25;;;8.50;90.40;;;;;;4972182;28;20118;-88
2021/03/16 10:45:06;;;;;;;4.95;3.53;;;8.50;90.70;;;;;;4985221;28;20043;-88
2021/03/16 10:47:32;;;;;;;13.75;5.40;;;8.40;90.40;;;;;;4990312;28;20507;-87
2021/03/16 10:49:58;;;;;;;5.22;4.38;;;;;;;;;;4991888;28;20042;-86
2021/03/16 10:52:23;;;;;;;4.32;3.00;;;8.40;90.40;;;;;;4987478;28;20031;-88
2021/03/16 10:54:49;;;;;;;4.63;3.75;;;;;;;;;;4992159;28;20376;-88
2021/03/16 10:57:15;;;;;;;3.15;2.72;;;8.70;87.50;;;;;;4991581;28;20082;-86
2021/03/16 10:59:41;;;;;;;4.22;3.28;;;8.90;86.00;;;;;;4989871;28;20618;-87
2021/03/16 11:02:07;;;;;;;4.07;2.92;;;9.20;85.90;;;;;;4960823;28;20051;-88
2021/03/16 11:04:35;;;;;;;3.55;2.97;;;9.30;83.70;;;;;;4989134;28;20046;-87
2021/03/16 11:07:02;;;;;;;4.10;3.40;;;9.00;84.20;;;;;;4970581;28;20062;-87
2021/03/16 11:09:37;;;;;;;3.50;3.20;;;8.90;81.70;;;;;;4990730;28;20075;-87
2021/03/16 11:12:04;;;;;;;3.03;2.70;;;8.90;83.80;;;;;;4987627;28;20051;-89
2021/03/16 11:14:30;;;;;;;3.30;3.10;;;8.70;82.30;;;;;;4995816;28;20042;-86
2021/03/16 11:16:56;;;;;;;5.10;3.53;;;9.00;81.60;;;;;;4996945;28;20090;-87
2021/03/16 11:19:22;;;;;;;3.95;3.13;;;9.00;83.40;;;;;;4970756;28;20490;-90
2021/03/16 11:21:48;;;;;;;3.70;3.10;;;9.30;80.50;;;;;;4969695;28;20042;-88
2021/03/16 11:24:15;;;;;;;5.63;3.20;;;9.60;80.00;;;;;;4987651;28;20041;-86
2021/03/16 11:26:41;;;;;;;4.88;2.92;;;9.70;78.60;;;;;;4986667;28;20039;-87
2021/03/16 11:29:07;;;;;;;3.97;2.97;;;;;;;;;;4971464;28;20101;-88
2021/03/16 11:31:39;;;;;;;3.45;2.85;;;10.30;74.80;;;;;;4990134;28;20045;-87
2021/03/16 11:34:05;;;;;;;4.85;3.20;;;10.30;73.90;;;;;;4990237;28;20514;-88
2021/03/16 11:36:31;;;;;;;4.82;3.30;;;10.20;71.60;;;;;;4986451;28;20044;-88
2021/03/16 11:38:57;;;;;;;3.92;3.55;;;10.20;72.60;;;;;;4989626;28;20043;-88
2021/03/16 11:41:23;;;;;;;3.28;3.03;;;10.30;73.10;;;;;;4991627;28;20097;-88
2021/03/16 11:43:49;;;;;;;2.85;2.63;;;10.60;72.00;;;;;;5004008;28;20039;-88
2021/03/16 11:46:15;;;;;;;4.43;4.03;;;10.50;72.60;;;;;;4989958;28;20071;-87
2021/03/16 11:48:41;;;;;;;6.60;5.22;;;;;;;;;;4993310;28;20592;-88
2021/03/16 11:51:07;;;;;;;4.50;3.58;;;;;;;;;;4988456;28;20051;-87
2021/03/16 11:53:33;;;;;;;3.45;2.80;;;10.50;70.60;;;;;;4964916;28;20035;-88
2021/03/16 11:55:59;;;;;;;3.53;3.22;;;;;;;;;;4986196;28;20056;-87
2021/03/16 11:58:26;;;;;;;4.80;3.30;;;9.60;70.60;;;;;;4982693;28;20059;-89
2021/03/16 12:00:52;;;;;;;3.60;3.30;;;9.70;71.40;;;;;;4985735;28;20061;-86
2021/03/16 12:03:19;;;;;;;4.63;3.90;;;9.50;73.60;;;;;;4969858;28;20035;-88
2021/03/16 12:05:47;;;;;;;3.70;3.25;;;9.40;72.70;;;;;;4986593;28;20415;-87
2021/03/16 12:08:13;;;;;;;4.22;3.92;;;;;;;;;;4985070;28;20055;-87
2021/03/16 12:10:40;;;;;;;4.28;3.05;;;9.00;72.70;;;;;;4993460;28;20119;-89
2021/03/16 12:13:06;;;;;;;3.55;3.25;;;;;;;;;;4980931;28;20074;-88
2021/03/16 12:15:32;;;;;;;3.42;3.15;;;9.20;75.20;;;;;;4985569;28;20118;-87
2021/03/16 12:17:58;;;;;;;3.60;3.00;;;9.20;75.40;;;;;;4986845;28;20070;-89
2021/03/16 12:20:23;;;;;;;3.90;3.05;;;9.50;74.80;;;;;;4979665;28;20377;-87
2021/03/16 12:22:50;;;;;;;3.85;3.55;;;;;;;;;;4989298;28;20483;-88
2021/03/16 12:25:16;;;;;;;3.20;2.90;;;9.40;73.20;;;;;;4997069;28;20572;-87
2021/03/16 12:27:42;;;;;;;5.50;2.80;;;9.40;74.10;;;;;;4970910;28;20067;-89
2021/03/16 12:30:08;;;;;;;3.60;2.97;;;9.40;74.10;;;;;;4991891;28;20416;-88
2021/03/16 12:32:38;;;;;;;4.80;3.58;;;9.40;73.40;;;;;;4989696;28;20458;-88
2021/03/16 12:35:13;;;;;;;4.00;3.55;;;9.30;75.50;;;;;;4988701;28;20759;-88
2021/03/16 12:37:40;;;;;;;4.55;2.90;;;9.40;75.20;;;;;;4987832;28;20757;-88
2021/03/16 12:40:07;;;;;;;3.13;2.85;;;9.10;81.80;;;;;;4989429;28;20134;-88
2021/03/16 12:42:34;;;;;;;3.47;3.17;;;9.10;82.40;;;;;;4970088;28;20035;-87
2021/03/16 12:45:00;;;;;;;3.28;2.60;;;8.80;86.40;;;;;;4986831;28;20127;-89
2021/03/16 12:47:26;;;;;;;4.50;2.83;;;8.70;86.30;;;;;;4987548;28;20059;-89
2021/03/16 12:49:53;;;;;;;2.85;2.50;;;8.60;88.60;;;;;;5001336;28;20578;-90
2021/03/16 12:52:19;;;;;;;4.95;2.67;;;8.50;89.10;;;;;;4985553;28;20817;-89
2021/03/16 12:54:45;;;;;;;2.25;2.15;;;8.40;90.90;;;;;;4974152;28;20043;-88
2021/03/16 12:57:11;;;;;;;3.67;3.30;;;7.80;91.50;;;;;;4995604;28;20046;-88
2021/03/16 12:59:46;;;;;;;3.15;2.85;;;7.90;91.80;;;;;;4992012;28;20063;-89
2021/03/16 13:02:12;;;;;;;3.90;2.95;;;8.00;92.20;;;;;;4981125;28;20055;-88
2021/03/16 13:04:38;;;;;;;2.70;2.50;;;8.10;91.90;;;;;;4988119;28;20403;-86
2021/03/16 13:07:04;;;;;;;6.88;3.08;;;8.50;92.00;;;;;;4979475;28;20054;-87
2021/03/16 13:09:30;;;;;;;3.17;2.92;;;9.10;91.90;;;;;;4970223;28;20054;-87
2021/03/16 13:12:00;;;;;;;3.53;3.08;;;9.70;90.50;;;;;;4987203;28;20047;-90
2021/03/16 13:14:26;;;;;;;7.57;4.80;;;10.10;88.60;;;;;;4987891;28;20051;-89
2021/03/16 13:16:52;;;;;;;138.82;64.57;;;10.90;87.10;;;;;;4985534;28;20114;-89
2021/03/16 13:19:18;;;;;;;9.02;6.28;;;;;;;;;;5001852;28;20078;-87
2021/03/16 13:21:44;;;;;;;4.90;4.47;;;;;;;;;;4987808;28;20038;-88
2021/03/16 13:24:10;;;;;;;4.55;3.35;;;15.80;61.50;;;;;;4981135;28;20043;-88
2021/03/16 13:26:37;;;;;;;3.70;3.28;;;15.60;58.40;;;;;;4973860;28;20078;-89
2021/03/16 13:29:04;;;;;;;4.28;3.00;;;15.60;58.90;;;;;;4987203;28;20039;-88
2021/03/16 13:31:30;;;;;;;3.63;2.90;;;15.60;52.90;;;;;;4985485;28;20140;-88
2021/03/16 13:33:56;;;;;;;3.53;3.22;;;16.10;54.70;;;;;;4968707;28;20041;-89
2021/03/16 13:36:22;;;;;;;6.90;5.35;;;17.60;53.10;;;;;;4986893;28;20070;-88
2021/03/16 13:38:48;;;;;;;2.90;2.70;;;18.20;50.00;;;;;;4987006;28;20494;-88
2021/03/16 13:41:14;;;;;;;2.97;2.78;;;;;;;;;;4986835;28;20538;-88
2021/03/16 13:43:40;;;;;;;4.05;2.90;;;18.10;43.00;;;;;;4990166;28;20058;-88
2021/03/16 13:46:06;;;;;;;4.85;4.32;;;17.60;43.70;;;;;;4984230;28;20047;-87
2021/03/16 13:48:32;;;;;;;3.25;2.92;;;;;;;;;;4985707;28;20051;-88
2021/03/16 13:50:58;;;;;;;13.27;7.95;;;15.30;48.20;;;;;;4987744;28;20039;-87
2021/03/16 13:53:26;;;;;;;4.00;3.70;;;14.10;53.50;;;;;;4987974;28;20073;-88
2021/03/16 13:55:51;;;;;;;3.72;3.03;;;13.70;53.00;;;;;;5000460;28;20531;-88
2021/03/16 13:58:17;;;;;;;3.20;2.90;;;;;;;;;;4969405;28;20134;-89
2021/03/16 14:00:43;;;;;;;3.00;2.80;;;11.80;58.70;;;;;;4987367;28;20039;-89
2021/03/16 14:03:09;;;;;;;6.32;3.47;;;;;;;;;;4985601;28;20113;-89
2021/03/16 14:05:35;;;;;;;3.90;2.83;;;11.40;61.20;;;;;;4986840;28;20559;-88
2021/03/16 14:08:01;;;;;;;3.50;3.20;;;11.10;63.20;;;;;;4987744;28;20179;-88
2021/03/16 14:10:27;;;;;;;3.08;2.80;;;;;;;;;;4987517;28;20580;-88
2021/03/16 14:12:52;;;;;;;6.85;6.15;;;9.90;70.60;;;;;;4987599;28;20125;-89
2021/03/16 14:15:18;;;;;;;4.00;3.70;;;10.10;75.10;;;;;;4987244;28;20532;-88
2021/03/16 14:17:44;;;;;;;5.38;4.70;;;11.00;74.90;;;;;;4987293;28;20047;-88
2021/03/16 14:20:12;;;;;;;4.00;3.70;;;12.10;73.50;;;;;;4987082;28;20055;-88
2021/03/16 14:22:41;;;;;;;3.95;3.65;;;13.30;68.10;;;;;;4986688;28;20054;-88
2021/03/16 14:25:08;;;;;;;3.58;3.28;;;14.50;62.80;;;;;;4987646;28;20035;-87
2021/03/16 14:27:34;;;;;;;3.50;3.15;;;14.60;54.20;;;;;;4987336;28;20510;-88
2021/03/16 14:30:00;;;;;;;2.67;2.58;;;15.40;54.40;;;;;;4987202;28;20039;-89
2021/03/16 14:36:24;;;;;;;3.17;2.97;;;16.40;48.70;;;;;;4990992;28;20047;-89
2021/03/16 14:42:39;;;;;;;3.10;2.80;;;16.90;47.50;;;;;;4984370;28;20070;-88
2021/03/16 14:45:06;;;;;;;3.25;2.88;;;17.70;45.30;;;;;;4985043;28;20047;-89
2021/03/16 14:47:32;;;;;;;2.80;2.60;;;;;;;;;;4986553;28;20063;-89
2021/03/16 14:49:58;;;;;;;2.75;2.58;;;;;;;;;;4987483;28;20051;-89
2021/03/16 14:52:24;;;;;;;3.33;3.03;;;;;;;;;;4986104;28;20443;-88
2021/03/16 14:54:51;;;;;;;3.33;3.00;;;14.50;50.00;;;;;;4986696;28;20063;-88
2021/03/16 14:57:17;;;;;;;5.00;3.05;;;13.10;55.70;;;;;;4990549;28;20043;-88
2021/03/16 14:59:43;;;;;;;3.35;3.05;;;12.50;55.70;;;;;;4994854;28;20043;-87
2021/03/16 15:02:09;;;;;;;3.58;2.67;;;;;;;;;;5000918;28;20983;-87
2021/03/16 15:04:35;;;;;;;2.80;2.60;;;12.00;56.20;;;;;;4992299;28;20047;-87
2021/03/16 15:07:00;;;;;;;5.25;3.20;;;11.60;59.50;;;;;;4998091;28;20099;-88
2021/03/16 15:09:27;;;;;;;2.55;2.35;;;11.20;62.90;;;;;;4995569;28;20055;-87
2021/03/16 15:11:54;;;;;;;2.63;2.22;;;9.80;66.90;;;;;;4995383;28;20985;-88
2021/03/16 15:14:20;;;;;;;2.20;2.10;;;8.80;67.40;;;;;;5001778;28;20027;-88
2021/03/16 15:16:46;;;;;;;2.60;2.40;;;8.70;67.70;;;;;;5002465;28;20050;-88
2021/03/16 15:19:12;;;;;;;2.35;2.25;;;8.20;72.90;;;;;;4997321;28;20050;-88
2021/03/16 15:21:38;;;;;;;2.88;2.63;;;8.20;72.90;;;;;;4998496;28;20482;-87
2021/03/16 15:24:08;;;;;;;3.65;3.22;;;7.90;75.80;;;;;;5000936;28;20035;-88
2021/03/16 15:26:35;;;;;;;2.72;2.63;;;7.60;81.60;;;;;;5002886;28;20039;-86
2021/03/16 15:29:05;;;;;;;2.58;2.33;;;7.40;84.60;;;;;;5006832;28;20049;-87
2021/03/16 15:31:32;;;;;;;3.10;2.72;;;7.30;89.20;;;;;;4999368;28;20102;-88
2021/03/16 15:34:08;;;;;;;2.88;2.60;;;7.10;90.90;;;;;;4990789;28;20087;-87
2021/03/16 15:36:34;;;;;;;2.72;2.60;;;7.10;91.90;;;;;;4996473;28;20858;-88
2021/03/16 15:39:00;;;;;;;2.22;2.13;;;7.40;92.60;;;;;;4988684;28;20043;-87
2021/03/16 15:41:26;;;;;;;3.40;3.13;;;7.70;92.00;;;;;;4974123;28;20051;-87
2021/03/16 15:43:52;;;;;;;3.28;3.00;;;8.10;92.60;;;;;;4986455;28;20082;-87
2021/03/16 15:46:18;;;;;;;3.40;3.10;;;9.00;90.10;;;;;;4968399;28;20054;-90
2021/03/16 15:48:44;;;;;;;2.97;2.78;;;8.90;90.30;;;;;;4971137;28;20055;-87
2021/03/16 15:51:09;;;;;;;4.45;3.55;;;9.10;86.40;;;;;;4985350;28;20156;-89
2021/03/16 15:53:36;;;;;;;4.05;3.40;;;9.00;90.00;;;;;;4968305;28;20066;-90
2021/03/16 15:56:04;;;;;;;4.00;3.28;;;8.70;90.50;;;;;;4968465;28;20043;-89
2021/03/16 15:58:31;;;;;;;8.25;3.30;;;8.70;90.30;;;;;;4981353;28;20564;-89
2021/03/16 16:00:56;;;;;;;4.18;2.90;;;8.50;89.40;;;;;;4977563;28;20066;-89
2021/03/16 16:03:22;;;;;;;4.30;3.50;;;;;;;;;;4990457;28;20051;-87
2021/03/16 16:05:48;;;;;;;3.20;2.90;;;8.40;87.00;;;;;;4987828;28;20841;-88
2021/03/16 16:08:14;;;;;;;2.78;2.58;;;8.40;86.70;;;;;;4987525;28;20044;-88
2021/03/16 16:10:40;;;;;;;3.58;3.28;;;8.30;85.20;;;;;;4987683;28;20043;-87
2021/03/16 16:13:07;;;;;;;3.90;2.65;;;8.20;85.10;;;;;;4988359;28;20051;-88
2021/03/16 16:15:32;;;;;;;5.32;2.90;;;8.00;87.80;;;;;;4986044;28;20774;-89
2021/03/16 16:17:58;;;;;;;3.42;3.05;;;7.80;90.30;;;;;;4992146;28;20036;-87
2021/03/16 16:20:25;;;;;;;3.00;2.70;;;7.60;91.10;;;;;;4990347;28;20047;-87
2021/03/16 16:22:51;;;;;;;3.42;3.13;;;7.40;92.30;;;;;;4993125;28;20047;-88
2021/03/16 16:25:17;;;;;;;4.38;3.65;;;7.30;92.80;;;;;;4993971;28;20202;-88
2021/03/16 16:27:43;;;;;;;3.65;2.95;;;7.20;93.20;;;;;;4988204;28;20070;-88
2021/03/16 16:30:12;;;;;;;3.88;3.58;;;7.10;93.60;;;;;;4970554;28;20051;-87
2021/03/16 16:32:40;;;;;;;3.50;2.97;;;7.00;91.40;;;;;;4972575;28;20418;-89
2021/03/16 16:35:08;;;;;;;6.13;3.28;;;6.90;91.00;;;;;;4984001;28;20039;-88
2021/03/16 16:37:34;;;;;;;3.40;3.20;;;6.70;90.40;;;;;;4981032;28;20043;-89
2021/03/16 16:40:00;;;;;;;3.75;3.10;;;6.50;90.30;;;;;;4990238;28;20470;-88
2021/03/16 16:42:26;;;;;;;3.05;2.53;;;6.30;91.10;;;;;;4989237;28;20380;-88
2021/03/16 16:44:52;;;;;;;3.22;2.88;;;6.20;90.40;;;;;;4989542;28;20059;-88
2021/03/16 16:47:17;;;;;;;2.80;2.60;;;6.10;90.80;;;;;;4989226;28;20492;-89
2021/03/16 16:49:45;;;;;;;4.22;3.13;;;6.00;90.30;;;;;;4994836;28;20065;-90
2021/03/16 16:52:11;;;;;;;4.25;3.40;;;6.00;90.60;;;;;;4989151;28;20190;-88
2021/03/16 16:54:39;;;;;;;2.58;2.42;;;5.90;90.40;;;;;;4988877;28;20044;-87
2021/03/16 16:57:05;;;;;;;4.35;3.25;;;6.00;91.20;;;;;;4990315;28;20043;-89
2021/03/16 16:59:31;;;;;;;4.38;3.13;;;5.90;91.30;;;;;;4972173;28;20047;-88
2021/03/16 17:01:57;;;;;;;4.45;3.17;;;;;;;;;;4974083;28;20103;-88
2021/03/16 17:04:23;;;;;;;3.05;2.85;;;5.70;90.90;;;;;;4992867;28;20412;-87